Time;durP1;ratioP1;P1;durP2;ratioP2;P2;SDS_P1;SDS_P2;PMS_P1;PMS_P2;Temp;Humidity;BMP_temperature;BMP_pressure;BME280_temperature;BME280_humidity;BME280_pressure;Samples;Min_cycle;Max_cycle;Signal;HPM_P1;HPM_P2
2021/08/29 00:00:49;;;;;;;18.52;7.00;;;13.90;99.90;;;;;;5049011;28;20060;-80
2021/08/29 00:03:15;;;;;;;19.33;8.10;;;13.90;99.90;;;;;;5030169;28;20037;-80
2021/08/29 00:05:40;;;;;;;17.77;8.38;;;14.00;99.90;;;;;;5031256;28;20029;-80
2021/08/29 00:08:06;;;;;;;13.50;7.50;;;14.00;99.90;;;;;;5031218;28;20038;-80
2021/08/29 00:10:32;;;;;;;13.77;7.70;;;13.90;99.90;;;;;;5031257;28;20069;-80
2021/08/29 00:12:58;;;;;;;15.50;7.60;;;14.00;99.90;;;;;;5044163;28;20021;-81
2021/08/29 00:15:23;;;;;;;19.67;9.63;;;14.00;99.90;;;;;;5050993;28;20415;-80
2021/08/29 00:17:49;;;;;;;16.90;8.27;;;14.00;99.90;;;;;;5049814;28;20033;-81
2021/08/29 00:20:15;;;;;;;12.88;7.57;;;14.00;99.90;;;;;;5051194;28;20055;-80
2021/08/29 00:22:40;;;;;;;21.92;8.32;;;13.90;99.90;;;;;;5040560;28;20398;-80
2021/08/29 00:25:06;;;;;;;15.52;8.05;;;14.00;99.90;;;;;;5030830;28;20045;-81
2021/08/29 00:27:32;;;;;;;17.77;8.13;;;13.90;99.90;;;;;;5044960;28;20175;-80
2021/08/29 00:29:57;;;;;;;19.70;8.68;;;13.80;99.90;;;;;;5054687;28;20525;-80
2021/08/29 00:32:23;;;;;;;18.13;7.82;;;13.90;99.90;;;;;;5049519;28;20052;-81
2021/08/29 00:34:48;;;;;;;19.45;8.10;;;13.90;99.90;;;;;;5034420;28;20048;-80
2021/08/29 00:37:14;;;;;;;20.73;7.47;;;13.90;99.90;;;;;;5034402;28;20028;-80
2021/08/29 00:39:40;;;;;;;18.50;8.15;;;13.90;99.90;;;;;;5034538;28;20087;-80
2021/08/29 00:42:09;;;;;;;14.90;7.07;;;13.80;99.90;;;;;;5034450;28;20029;-80
2021/08/29 00:44:36;;;;;;;11.07;6.38;;;13.80;99.90;;;;;;5033014;28;20025;-80
2021/08/29 00:47:06;;;;;;;15.52;6.75;;;13.90;99.90;;;;;;5034421;28;20026;-81
2021/08/29 00:49:34;;;;;;;15.02;7.22;;;13.80;99.90;;;;;;5034447;28;20053;-81
2021/08/29 00:52:01;;;;;;;13.73;7.05;;;13.80;99.90;;;;;;5034232;28;20052;-80
2021/08/29 00:54:31;;;;;;;14.15;7.32;;;13.80;99.90;;;;;;5050002;28;20400;-80
2021/08/29 00:56:58;;;;;;;24.05;7.60;;;13.70;99.90;;;;;;5054170;28;20104;-80
2021/08/29 00:59:30;;;;;;;13.07;7.20;;;13.70;99.90;;;;;;5054144;28;20108;-80
2021/08/29 01:02:00;;;;;;;14.85;7.43;;;13.70;99.90;;;;;;5054015;28;20021;-80
2021/08/29 01:04:34;;;;;;;16.60;7.38;;;13.70;99.90;;;;;;5040496;28;20026;-80
2021/08/29 01:07:04;;;;;;;;;;;13.70;99.90;;;;;;5033318;28;20490;-80
2021/08/29 01:09:31;;;;;;;10.95;7.22;;;13.70;99.90;;;;;;5034149;28;19912;-81
2021/08/29 01:11:57;;;;;;;19.95;7.63;;;13.70;99.90;;;;;;5033911;28;20021;-80
2021/08/29 01:14:26;;;;;;;17.02;8.43;;;13.70;99.90;;;;;;5042048;28;20029;-80
2021/08/29 01:16:55;;;;;;;12.07;7.15;;;13.70;99.90;;;;;;5053810;28;20028;-80
2021/08/29 01:19:31;;;;;;;12.85;7.90;;;13.70;99.90;;;;;;5053825;28;20025;-80
2021/08/29 01:21:59;;;;;;;13.60;7.68;;;13.70;99.90;;;;;;5052462;28;20051;-81
2021/08/29 01:24:26;;;;;;;17.70;8.70;;;13.70;99.90;;;;;;5045747;28;20056;-80
2021/08/29 01:26:56;;;;;;;16.05;7.68;;;13.70;99.90;;;;;;5033445;28;20037;-80
2021/08/29 01:29:27;;;;;;;14.90;7.40;;;13.70;99.90;;;;;;5033691;28;20021;-80
2021/08/29 01:31:53;;;;;;;15.10;6.82;;;13.70;99.90;;;;;;5033529;28;20529;-80
2021/08/29 01:34:19;;;;;;;16.05;7.05;;;13.70;99.90;;;;;;5034463;28;20025;-80
2021/08/29 01:36:48;;;;;;;16.27;6.85;;;13.70;99.90;;;;;;5032161;28;20021;-80
2021/08/29 01:39:15;;;;;;;19.55;7.03;;;13.70;99.90;;;;;;5031438;28;20397;-80
2021/08/29 01:41:44;;;;;;;20.23;7.20;;;13.70;99.90;;;;;;5033104;28;20029;-80
2021/08/29 01:44:11;;;;;;;14.20;6.80;;;13.80;99.90;;;;;;5031936;28;20057;-80
2021/08/29 01:46:38;;;;;;;18.58;7.60;;;13.80;99.90;;;;;;5033618;28;20029;-80
2021/08/29 01:49:07;;;;;;;12.27;8.07;;;13.80;99.90;;;;;;5032106;28;20401;-80
2021/08/29 01:51:32;;;;;;;11.38;6.75;;;13.80;99.90;;;;;;5031881;28;20478;-80
2021/08/29 01:53:58;;;;;;;14.02;7.50;;;13.80;99.90;;;;;;5031615;28;20030;-81
2021/08/29 01:56:24;;;;;;;13.30;7.47;;;13.70;99.90;;;;;;5048577;28;20029;-80
2021/08/29 01:58:50;;;;;;;19.67;8.13;;;13.80;99.90;;;;;;5051770;28;20405;-80
2021/08/29 02:01:16;;;;;;;14.85;7.15;;;13.80;99.90;;;;;;5051754;28;20159;-80
2021/08/29 02:03:42;;;;;;;12.32;7.70;;;13.90;99.90;;;;;;5051543;28;20071;-80
2021/08/29 02:06:12;;;;;;;16.55;7.35;;;13.90;99.90;;;;;;5041811;28;20107;-80
2021/08/29 02:08:41;;;;;;;14.15;7.70;;;13.80;99.90;;;;;;5032794;28;20677;-80
2021/08/29 02:11:08;;;;;;;11.30;6.70;;;13.80;99.90;;;;;;5032825;28;20057;-80
2021/08/29 02:13:37;;;;;;;11.98;6.60;;;13.90;99.90;;;;;;5032766;28;20025;-80
2021/08/29 02:16:12;;;;;;;10.73;6.38;;;13.90;99.90;;;;;;5039618;28;20036;-80
2021/08/29 02:18:42;;;;;;;11.38;6.20;;;13.90;99.90;;;;;;5052608;28;20021;-80
2021/08/29 02:21:09;;;;;;;14.38;7.63;;;13.90;99.90;;;;;;5052532;28;20519;-80
2021/08/29 02:23:34;;;;;;;15.20;7.00;;;13.90;99.90;;;;;;5051275;28;20471;-80
2021/08/29 02:26:01;;;;;;;15.20;6.82;;;13.90;99.90;;;;;;5048145;28;20117;-80
2021/08/29 02:28:27;;;;;;;14.75;6.50;;;13.90;99.90;;;;;;5031246;28;20022;-80
2021/08/29 02:30:53;;;;;;;13.27;6.85;;;13.90;99.90;;;;;;5031149;28;20076;-80
2021/08/29 02:33:19;;;;;;;10.98;6.47;;;13.90;99.90;;;;;;5032389;28;20021;-80
2021/08/29 02:35:46;;;;;;;11.18;6.72;;;13.90;99.90;;;;;;5032117;28;20544;-80
2021/08/29 02:38:12;;;;;;;13.38;7.07;;;13.90;99.90;;;;;;5031206;28;20399;-80
2021/08/29 02:40:44;;;;;;;14.98;6.30;;;13.90;99.90;;;;;;5032362;28;20104;-80
2021/08/29 02:43:11;;;;;;;18.38;7.32;;;13.90;99.90;;;;;;5049492;28;20627;-80
2021/08/29 02:45:40;;;;;;;10.85;6.70;;;13.90;99.90;;;;;;5051980;28;20066;-80
2021/08/29 02:48:06;;;;;;;14.93;6.72;;;13.90;99.90;;;;;;5039073;28;20033;-80
2021/08/29 02:50:33;;;;;;;13.05;6.15;;;13.90;99.90;;;;;;5030691;28;20026;-80
2021/08/29 02:52:59;;;;;;;14.65;7.38;;;13.90;99.90;;;;;;5032240;28;20037;-79
2021/08/29 02:55:25;;;;;;;14.90;7.15;;;13.90;99.90;;;;;;5030689;28;20026;-80
2021/08/29 02:58:02;;;;;;;10.52;5.90;;;13.90;99.90;;;;;;5042203;28;20437;-82
2021/08/29 03:00:28;;;;;;;11.32;6.53;;;13.90;99.90;;;;;;5050729;28;20033;-80
2021/08/29 03:02:54;;;;;;;10.18;5.82;;;14.00;99.90;;;;;;5051905;28;20075;-80
2021/08/29 03:05:20;;;;;;;12.32;6.18;;;13.90;99.90;;;;;;5051909;28;20028;-80
2021/08/29 03:07:46;;;;;;;12.48;6.60;;;14.00;99.90;;;;;;5044661;28;20108;-80
2021/08/29 03:10:13;;;;;;;12.95;6.65;;;14.00;99.90;;;;;;5031899;28;20100;-80
2021/08/29 03:12:39;;;;;;;11.98;5.72;;;14.00;99.90;;;;;;5031879;28;20032;-80
2021/08/29 03:15:06;;;;;;;15.27;6.90;;;14.00;99.90;;;;;;5031544;28;20030;-80
2021/08/29 03:17:32;;;;;;;8.93;6.05;;;14.00;99.90;;;;;;5033497;28;20495;-80
2021/08/29 03:20:00;;;;;;;11.57;5.93;;;14.00;99.90;;;;;;5051650;28;20575;-80
2021/08/29 03:22:26;;;;;;;12.35;6.28;;;14.10;99.90;;;;;;5051741;28;20385;-80
2021/08/29 03:24:52;;;;;;;15.07;6.78;;;14.00;99.90;;;;;;5051309;28;20025;-80
2021/08/29 03:27:18;;;;;;;11.75;7.05;;;14.00;99.90;;;;;;5051652;28;20523;-80
2021/08/29 03:29:44;;;;;;;11.07;6.00;;;14.00;99.90;;;;;;5033963;28;20034;-80
2021/08/29 03:32:09;;;;;;;17.45;6.82;;;14.10;99.90;;;;;;5031675;28;20025;-80
2021/08/29 03:34:36;;;;;;;14.18;6.20;;;14.00;99.90;;;;;;5030270;28;20456;-80
2021/08/29 03:37:03;;;;;;;15.50;6.80;;;14.00;99.90;;;;;;5031617;28;20022;-81
2021/08/29 03:39:31;;;;;;;11.10;5.88;;;14.00;99.90;;;;;;5030944;28;20031;-80
2021/08/29 03:41:58;;;;;;;14.57;5.85;;;14.10;99.90;;;;;;5031631;28;20033;-80
2021/08/29 03:44:25;;;;;;;15.95;6.25;;;14.10;99.90;;;;;;5030096;28;20037;-80
2021/08/29 03:46:54;;;;;;;11.95;6.03;;;14.10;99.90;;;;;;5030393;28;20546;-80
2021/08/29 03:49:20;;;;;;;12.02;5.78;;;14.10;99.90;;;;;;5039829;28;20082;-80
2021/08/29 03:51:46;;;;;;;10.75;5.88;;;14.10;99.90;;;;;;5051365;28;20029;-80
2021/08/29 03:54:14;;;;;;;12.60;6.18;;;14.10;99.90;;;;;;5049948;28;20056;-80
2021/08/29 03:56:40;;;;;;;11.82;6.10;;;14.10;99.90;;;;;;5051335;28;20029;-80
2021/08/29 03:59:06;;;;;;;8.20;5.90;;;14.10;99.90;;;;;;5047305;28;20359;-80
2021/08/29 04:01:32;;;;;;;9.68;5.90;;;14.10;99.90;;;;;;5031424;28;20033;-80
2021/08/29 04:03:58;;;;;;;13.10;6.65;;;14.10;99.90;;;;;;5033435;28;20029;-81
2021/08/29 04:06:32;;;;;;;11.35;5.80;;;14.10;99.90;;;;;;5033905;28;20513;-80
2021/08/29 04:09:02;;;;;;;14.15;6.40;;;14.10;99.90;;;;;;5035255;28;20040;-80
2021/08/29 04:11:29;;;;;;;14.30;6.38;;;14.10;99.90;;;;;;5035108;28;20112;-80
2021/08/29 04:13:56;;;;;;;10.70;5.82;;;14.00;99.90;;;;;;5033579;28;20018;-80
2021/08/29 04:16:23;;;;;;;8.52;5.07;;;14.10;99.90;;;;;;5034914;28;20049;-80
2021/08/29 04:18:49;;;;;;;9.82;5.72;;;14.10;99.90;;;;;;5034942;28;20032;-80
2021/08/29 04:21:21;;;;;;;13.00;6.20;;;14.10;99.90;;;;;;5049486;28;20033;-80
2021/08/29 04:23:47;;;;;;;14.30;5.75;;;14.10;99.90;;;;;;5054589;28;20029;-80
2021/08/29 04:26:12;;;;;;;10.40;5.63;;;14.20;99.90;;;;;;5054829;28;20036;-81
2021/08/29 04:28:38;;;;;;;19.40;6.90;;;14.10;99.90;;;;;;5054699;28;20113;-80
2021/08/29 04:31:15;;;;;;;12.48;6.05;;;14.10;99.90;;;;;;5042726;28;20045;-80
2021/08/29 04:33:41;;;;;;;10.50;6.00;;;14.20;99.90;;;;;;5034621;28;20017;-80
2021/08/29 04:36:08;;;;;;;9.20;5.72;;;14.20;99.90;;;;;;5034658;28;20496;-79
2021/08/29 04:38:35;;;;;;;14.20;6.20;;;14.20;99.90;;;;;;5033300;28;20063;-80
2021/08/29 04:41:01;;;;;;;10.07;6.10;;;14.20;99.90;;;;;;5035299;28;20029;-80
2021/08/29 04:43:27;;;;;;;16.77;6.75;;;14.20;99.90;;;;;;5046710;28;20412;-80
2021/08/29 04:45:52;;;;;;;13.82;6.55;;;14.20;99.90;;;;;;5054640;28;20096;-80
2021/08/29 04:48:18;;;;;;;13.75;5.88;;;14.20;99.90;;;;;;5053088;28;20029;-79
2021/08/29 04:50:43;;;;;;;13.32;6.10;;;14.20;99.90;;;;;;5050889;28;20065;-80
2021/08/29 04:53:09;;;;;;;15.20;6.55;;;14.20;99.90;;;;;;5034350;28;20075;-80
2021/08/29 04:55:35;;;;;;;11.27;6.00;;;14.20;99.90;;;;;;5032914;28;20022;-80
2021/08/29 04:58:00;;;;;;;13.65;6.20;;;14.20;99.90;;;;;;5034235;28;20021;-80
2021/08/29 05:00:26;;;;;;;8.07;4.82;;;14.20;99.90;;;;;;5033016;28;20040;-80
2021/08/29 05:02:52;;;;;;;10.10;5.07;;;14.20;99.90;;;;;;5033800;28;20029;-80
2021/08/29 05:05:17;;;;;;;9.90;5.35;;;14.30;99.90;;;;;;5032693;28;20041;-80
2021/08/29 05:07:43;;;;;;;6.05;5.15;;;14.30;99.90;;;;;;5032776;28;20029;-80
2021/08/29 05:10:09;;;;;;;9.57;5.55;;;14.20;99.90;;;;;;5034020;28;20393;-80
2021/08/29 05:12:34;;;;;;;8.45;4.90;;;14.20;99.90;;;;;;5044811;28;20025;-80
2021/08/29 05:15:00;;;;;;;10.40;5.45;;;14.20;99.90;;;;;;5053504;28;20025;-80
2021/08/29 05:17:25;;;;;;;9.25;5.57;;;14.30;99.90;;;;;;5053757;28;20056;-80
2021/08/29 05:19:51;;;;;;;8.15;5.72;;;14.30;99.90;;;;;;5053847;28;20063;-80
2021/08/29 05:22:17;;;;;;;9.88;4.75;;;14.30;99.90;;;;;;5046441;28;20045;-80
2021/08/29 05:24:42;;;;;;;6.95;5.75;;;14.30;99.90;;;;;;5045751;28;20036;-80
2021/08/29 05:27:08;;;;;;;9.75;5.88;;;14.30;99.90;;;;;;5052280;28;20021;-80
2021/08/29 05:29:33;;;;;;;8.23;6.25;;;14.30;99.90;;;;;;5052398;28;20028;-80
2021/08/29 05:31:59;;;;;;;8.82;5.57;;;14.40;99.90;;;;;;5051559;28;20090;-80
2021/08/29 05:34:24;;;;;;;11.10;5.63;;;14.40;99.90;;;;;;5033428;28;20068;-80
2021/08/29 05:36:50;;;;;;;8.23;5.30;;;14.40;99.90;;;;;;5033395;28;20029;-80
2021/08/29 05:39:15;;;;;;;7.88;6.10;;;14.40;99.90;;;;;;5033504;28;20026;-80
2021/08/29 05:41:41;;;;;;;10.63;5.85;;;14.40;99.90;;;;;;5033575;28;20025;-80
2021/08/29 05:44:06;;;;;;;11.23;7.30;;;14.40;99.90;;;;;;5049274;28;20029;-80
2021/08/29 05:46:32;;;;;;;10.98;6.70;;;14.50;99.90;;;;;;5053198;28;20055;-79
2021/08/29 05:48:58;;;;;;;13.63;6.82;;;14.50;99.90;;;;;;5071060;22;20048;-84
2021/08/29 05:51:23;;;;;;;11.40;6.63;;;14.50;99.90;;;;;;5018638;28;20115;-85
2021/08/29 05:53:49;;;;;;;7.63;6.25;;;14.50;99.90;;;;;;5039610;28;20032;-84
2021/08/29 05:56:14;;;;;;;10.90;6.68;;;14.50;99.90;;;;;;5031880;28;20532;-83
2021/08/29 05:58:40;;;;;;;11.05;6.18;;;14.50;99.90;;;;;;5033133;28;20030;-84
2021/08/29 06:01:06;;;;;;;10.73;7.43;;;14.50;99.90;;;;;;5026426;28;20022;-84
2021/08/29 06:03:31;;;;;;;12.63;6.13;;;14.50;99.90;;;;;;5012925;28;20088;-85
2021/08/29 06:05:58;;;;;;;14.95;6.53;;;14.60;99.90;;;;;;5028047;28;20053;-85
2021/08/29 06:08:23;;;;;;;22.38;6.80;;;14.60;99.90;;;;;;5013022;28;20092;-84
2021/08/29 06:10:49;;;;;;;21.63;8.07;;;14.60;99.90;;;;;;5039102;28;20022;-85
2021/08/29 06:13:14;;;;;;;12.68;7.85;;;14.70;99.90;;;;;;5031447;28;20108;-84
2021/08/29 06:15:40;;;;;;;16.20;8.02;;;14.80;99.90;;;;;;5032360;28;20060;-84
2021/08/29 06:18:05;;;;;;;13.85;8.05;;;14.70;99.90;;;;;;5032591;28;20033;-84
2021/08/29 06:20:31;;;;;;;18.30;8.63;;;14.80;99.90;;;;;;5032256;28;20057;-85
2021/08/29 06:22:57;;;;;;;16.20;8.55;;;14.70;99.90;;;;;;5031348;28;20128;-84
2021/08/29 06:25:22;;;;;;;23.38;8.20;;;14.60;99.90;;;;;;5031884;28;20041;-84
2021/08/29 06:27:48;;;;;;;17.20;7.60;;;14.80;99.90;;;;;;5032270;28;20029;-84
2021/08/29 06:30:13;;;;;;;13.30;7.30;;;14.80;99.90;;;;;;5030644;28;20485;-84
2021/08/29 06:32:39;;;;;;;15.07;7.97;;;14.90;99.90;;;;;;5030810;28;20028;-84
2021/08/29 06:35:05;;;;;;;13.23;8.27;;;14.90;99.90;;;;;;5031993;28;20041;-84
2021/08/29 06:37:30;;;;;;;15.93;8.40;;;15.00;99.90;;;;;;5032300;28;20025;-83
2021/08/29 06:39:56;;;;;;;16.48;8.48;;;15.00;99.90;;;;;;5030914;28;20508;-84
2021/08/29 06:42:21;;;;;;;14.35;7.28;;;15.00;99.90;;;;;;5031078;28;20025;-83
2021/08/29 06:44:47;;;;;;;13.98;7.10;;;15.10;99.90;;;;;;5031315;28;20017;-84
2021/08/29 06:47:12;;;;;;;13.30;7.57;;;15.10;99.90;;;;;;5032051;28;20087;-84
2021/08/29 06:49:38;;;;;;;10.73;7.22;;;15.10;99.90;;;;;;5031973;28;20026;-83
2021/08/29 06:52:04;;;;;;;17.42;7.95;;;15.20;99.90;;;;;;5031987;28;20461;-84
2021/08/29 06:54:29;;;;;;;17.00;7.43;;;15.20;99.90;;;;;;5031930;28;20040;-85
2021/08/29 06:56:55;;;;;;;22.10;7.82;;;15.20;99.90;;;;;;5030459;28;20096;-84
2021/08/29 06:59:21;;;;;;;11.57;7.55;;;15.20;99.90;;;;;;5030680;28;20053;-85
2021/08/29 07:01:46;;;;;;;13.48;6.88;;;15.20;99.90;;;;;;5030576;28;20033;-84
2021/08/29 07:04:12;;;;;;;12.82;6.60;;;15.30;99.90;;;;;;5030361;28;20040;-84
2021/08/29 07:06:37;;;;;;;15.30;7.28;;;15.30;99.90;;;;;;5030430;28;20037;-84
2021/08/29 07:09:04;;;;;;;14.25;8.20;;;15.30;99.90;;;;;;5031751;28;20033;-84
2021/08/29 07:11:29;;;;;;;12.18;6.72;;;15.30;99.90;;;;;;5030582;28;20079;-86
2021/08/29 07:13:55;;;;;;;15.23;6.55;;;15.30;99.90;;;;;;5019837;28;20029;-84
2021/08/29 07:16:20;;;;;;;11.48;6.57;;;15.40;99.90;;;;;;5027208;28;20068;-85
2021/08/29 07:18:46;;;;;;;16.05;6.60;;;15.50;99.90;;;;;;5026242;28;20024;-83
2021/08/29 07:21:12;;;;;;;24.17;6.50;;;15.70;99.90;;;;;;5026443;28;20433;-83
2021/08/29 07:23:38;;;;;;;20.00;6.55;;;15.80;99.90;;;;;;5025044;28;20033;-85
2021/08/29 07:26:03;;;;;;;18.42;6.32;;;16.00;99.90;;;;;;5026916;28;20607;-84
2021/08/29 07:28:29;;;;;;;16.13;5.35;;;16.10;99.90;;;;;;5025089;28;20036;-84
2021/08/29 07:30:54;;;;;;;7.80;5.25;;;16.00;99.90;;;;;;5025617;28;20025;-86
2021/08/29 07:33:20;;;;;;;8.02;4.05;;;16.10;99.90;;;;;;5026034;28;20053;-84
2021/08/29 07:35:46;;;;;;;9.68;3.65;;;16.20;99.90;;;;;;5027335;28;20058;-85
2021/08/29 07:38:11;;;;;;;7.07;4.20;;;16.30;99.90;;;;;;5029039;28;20045;-84
2021/08/29 07:40:37;;;;;;;8.20;3.40;;;16.40;99.90;;;;;;5034876;28;20025;-85
2021/08/29 07:43:02;;;;;;;5.45;3.55;;;16.40;99.90;;;;;;5031458;28;20034;-85
2021/08/29 07:45:28;;;;;;;6.13;3.38;;;16.40;99.90;;;;;;5034011;28;20761;-83
2021/08/29 07:47:55;;;;;;;5.63;3.40;;;16.40;99.90;;;;;;5031397;28;20595;-86
2021/08/29 07:50:22;;;;;;;9.20;2.72;;;16.30;99.90;;;;;;5030923;28;20047;-85
2021/08/29 07:52:48;;;;;;;6.93;2.72;;;16.30;99.90;;;;;;5031261;28;20034;-86
2021/08/29 07:55:14;;;;;;;4.82;2.97;;;16.30;99.90;;;;;;5029675;28;20056;-84
2021/08/29 07:57:39;;;;;;;9.70;2.95;;;16.20;99.90;;;;;;5026749;28;20108;-83
2021/08/29 08:00:06;;;;;;;5.82;3.05;;;16.20;99.90;;;;;;5029743;28;20029;-85
2021/08/29 08:02:32;;;;;;;3.63;2.70;;;16.20;99.90;;;;;;5030034;28;20022;-84
2021/08/29 08:04:57;;;;;;;5.10;3.30;;;16.20;99.90;;;;;;5029264;28;20075;-83
2021/08/29 08:07:23;;;;;;;6.75;3.15;;;16.20;99.90;;;;;;5031558;28;20045;-87
2021/08/29 08:09:49;;;;;;;3.60;2.60;;;16.30;99.90;;;;;;5029638;28;20056;-91
2021/08/29 08:12:14;;;;;;;7.72;3.80;;;16.30;99.90;;;;;;5030348;28;20032;-89
2021/08/29 08:14:40;;;;;;;9.23;3.60;;;16.20;99.90;;;;;;5029923;28;20036;-86
2021/08/29 08:17:06;;;;;;;10.18;3.88;;;16.20;99.90;;;;;;5030210;28;20021;-87
2021/08/29 08:19:33;;;;;;;6.72;3.47;;;16.40;99.90;;;;;;5029356;28;20106;-87
2021/08/29 08:21:59;;;;;;;4.55;3.22;;;16.40;99.90;;;;;;5029538;28;20488;-86
2021/08/29 08:24:24;;;;;;;6.50;3.50;;;16.50;99.90;;;;;;5029448;28;20037;-85
2021/08/29 08:26:50;;;;;;;6.53;3.78;;;16.50;99.90;;;;;;5034334;28;20108;-86
2021/08/29 08:29:15;;;;;;;4.93;3.55;;;16.60;99.90;;;;;;5034505;28;20033;-86
2021/08/29 08:31:41;;;;;;;9.98;4.07;;;16.80;99.90;;;;;;5033132;28;20033;-85
2021/08/29 08:34:07;;;;;;;5.93;4.00;;;16.90;99.90;;;;;;5034466;28;20022;-86
2021/08/29 08:36:32;;;;;;;7.70;4.10;;;16.90;99.90;;;;;;5034670;28;20030;-85
2021/08/29 08:39:00;;;;;;;8.85;5.10;;;16.70;99.90;;;;;;5034586;28;20040;-83
2021/08/29 08:41:26;;;;;;;12.90;5.63;;;16.70;99.90;;;;;;5032922;28;20566;-83
2021/08/29 08:43:51;;;;;;;11.40;7.07;;;16.70;99.90;;;;;;5034201;28;20028;-83
2021/08/29 08:46:19;;;;;;;18.75;7.70;;;16.60;99.90;;;;;;5033228;28;20025;-84
2021/08/29 08:48:48;;;;;;;10.93;6.85;;;16.60;99.90;;;;;;5033571;28;20025;-82
2021/08/29 08:51:21;;;;;;;17.85;7.25;;;16.70;99.90;;;;;;5033696;28;20497;-83
2021/08/29 08:53:49;;;;;;;17.52;7.97;;;16.70;99.90;;;;;;5034276;28;20029;-82
2021/08/29 08:56:16;;;;;;;15.65;6.85;;;16.80;99.90;;;;;;5034118;28;20108;-83
2021/08/29 08:58:44;;;;;;;15.23;7.03;;;16.80;99.90;;;;;;5034185;28;20139;-84
2021/08/29 09:01:09;;;;;;;22.60;8.40;;;16.70;99.90;;;;;;5034021;28;20048;-82
2021/08/29 09:03:36;;;;;;;19.35;8.25;;;16.80;99.90;;;;;;5034061;28;20025;-82
2021/08/29 09:06:04;;;;;;;21.55;7.82;;;16.70;99.90;;;;;;5033990;28;20029;-80
2021/08/29 09:08:31;;;;;;;14.63;8.15;;;16.80;99.90;;;;;;5034077;28;20025;-81
2021/08/29 09:10:57;;;;;;;20.40;8.57;;;16.80;99.90;;;;;;5033870;28;20112;-81
2021/08/29 09:13:22;;;;;;;15.90;8.18;;;16.70;99.90;;;;;;5033487;28;20084;-82
2021/08/29 09:15:48;;;;;;;26.98;9.40;;;16.80;99.90;;;;;;5033783;28;20091;-82
2021/08/29 09:18:14;;;;;;;19.98;8.65;;;16.90;99.90;;;;;;5032550;28;20017;-82
2021/08/29 09:20:40;;;;;;;17.67;9.73;;;16.90;99.90;;;;;;5033864;28;20048;-82
2021/08/29 09:23:08;;;;;;;30.20;10.23;;;16.90;99.90;;;;;;5032269;28;20033;-82
2021/08/29 09:25:40;;;;;;;19.27;9.75;;;16.80;99.90;;;;;;5033481;28;20040;-81
2021/08/29 09:28:11;;;;;;;25.30;10.23;;;16.90;99.90;;;;;;5029532;28;20490;-82
2021/08/29 09:30:41;;;;;;;24.85;11.52;;;16.90;99.90;;;;;;5032283;28;20136;-84
2021/08/29 09:33:07;;;;;;;29.27;11.00;;;16.90;99.90;;;;;;5033601;28;20021;-83
2021/08/29 09:35:34;;;;;;;22.20;10.18;;;17.10;99.90;;;;;;5033213;28;20071;-81
2021/08/29 09:38:02;;;;;;;23.90;11.95;;;16.90;99.90;;;;;;5033407;28;20025;-83
2021/08/29 09:40:31;;;;;;;22.10;11.05;;;16.90;99.90;;;;;;5036299;28;20026;-83
2021/08/29 09:42:58;;;;;;;23.33;11.52;;;17.10;99.90;;;;;;5033119;28;20049;-84
2021/08/29 09:45:28;;;;;;;34.45;10.98;;;17.20;99.90;;;;;;5031498;28;20029;-85
2021/08/29 09:47:58;;;;;;;23.95;11.80;;;17.40;99.90;;;;;;5033418;28;20033;-83
2021/08/29 09:50:25;;;;;;;22.83;10.48;;;17.60;99.90;;;;;;5032641;28;20057;-85
2021/08/29 09:53:05;;;;;;;21.30;10.43;;;17.60;99.90;;;;;;5033280;28;20552;-84
2021/08/29 09:55:39;;;;;;;15.95;9.68;;;17.50;99.90;;;;;;5031361;28;20060;-84
2021/08/29 09:58:28;;;;;;;20.60;10.38;;;17.50;99.90;;;;;;5033121;28;20025;-83
2021/08/29 10:01:12;;;;;;;20.33;10.30;;;17.40;99.90;;;;;;5031839;28;20029;-82
2021/08/29 10:03:43;;;;;;;20.42;10.57;;;17.40;99.90;;;;;;5032947;28;20022;-82
2021/08/29 10:06:25;;;;;;;22.65;11.50;;;17.20;99.90;;;;;;5031137;28;20037;-82
2021/08/29 10:08:52;;;;;;;21.73;11.30;;;17.30;99.90;;;;;;5032886;28;20025;-83
2021/08/29 10:11:20;;;;;;;21.95;12.13;;;17.20;99.90;;;;;;5030035;28;20414;-83
2021/08/29 10:13:47;;;;;;;30.65;12.23;;;17.00;99.90;;;;;;5032486;28;20018;-83
2021/08/29 10:16:13;;;;;;;33.15;12.85;;;17.10;99.90;;;;;;5032684;28;20013;-83
2021/08/29 10:18:42;;;;;;;22.45;13.18;;;17.00;99.90;;;;;;5032498;28;20029;-82
2021/08/29 10:21:13;;;;;;;23.35;12.70;;;16.90;99.90;;;;;;5031528;28;20064;-82
2021/08/29 10:23:44;;;;;;;25.02;11.23;;;17.10;99.90;;;;;;5032465;28;20423;-82
2021/08/29 10:26:11;;;;;;;23.92;11.90;;;17.10;99.90;;;;;;5032645;28;20071;-81
2021/08/29 10:28:43;;;;;;;21.38;12.68;;;17.00;99.90;;;;;;5031010;28;20394;-82
2021/08/29 10:31:13;;;;;;;21.67;12.10;;;17.10;99.90;;;;;;5032771;28;20108;-82
2021/08/29 10:33:47;;;;;;;19.50;12.68;;;17.00;99.90;;;;;;5032372;28;20030;-82
2021/08/29 10:36:18;;;;;;;18.90;12.00;;;17.00;99.90;;;;;;5032360;28;20041;-81
2021/08/29 10:38:46;;;;;;;21.40;11.43;;;17.00;99.90;;;;;;5030839;28;20489;-81
2021/08/29 10:41:12;;;;;;;26.73;11.77;;;17.10;99.90;;;;;;5032424;28;20033;-82
2021/08/29 10:43:39;;;;;;;23.20;12.00;;;16.90;99.90;;;;;;5032243;28;20401;-82
2021/08/29 10:46:08;;;;;;;24.20;12.38;;;17.00;99.90;;;;;;5032240;28;20040;-82
2021/08/29 10:48:36;;;;;;;17.85;11.88;;;17.00;99.90;;;;;;5031898;28;20025;-81
2021/08/29 10:51:03;;;;;;;26.05;12.75;;;17.00;99.90;;;;;;5030769;28;20030;-80
2021/08/29 10:53:33;;;;;;;25.23;12.25;;;17.00;99.90;;;;;;5032145;28;20025;-81
2021/08/29 10:56:32;;;;;;;24.35;12.15;;;17.00;99.90;;;;;;5031968;28;20417;-81
2021/08/29 10:59:07;;;;;;;21.05;11.35;;;17.10;99.90;;;;;;5031827;28;20017;-80
2021/08/29 11:01:36;;;;;;;20.42;12.55;;;17.20;99.90;;;;;;5030837;28;20107;-80
2021/08/29 11:04:34;;;;;;;21.73;12.10;;;17.10;99.90;;;;;;5031881;28;20044;-80
2021/08/29 11:07:06;;;;;;;19.48;11.20;;;17.10;99.90;;;;;;4968705;28;20037;-79
2021/08/29 11:09:35;;;;;;;22.10;11.43;;;17.10;99.90;;;;;;5026224;28;20025;-79
2021/08/29 11:12:02;;;;;;;19.88;12.00;;;17.10;99.90;;;;;;5030448;28;20033;-79
2021/08/29 11:14:48;;;;;;;28.02;12.00;;;17.10;99.90;;;;;;5031680;28;20103;-81
2021/08/29 11:17:22;;;;;;;18.05;10.80;;;17.20;99.90;;;;;;5031812;28;20025;-79
2021/08/29 11:19:50;;;;;;;25.30;11.45;;;17.30;99.90;;;;;;5031765;28;20057;-79
2021/08/29 11:22:19;;;;;;;21.02;11.18;;;17.30;99.90;;;;;;5031773;28;20087;-79
2021/08/29 11:25:13;;;;;;;25.13;11.18;;;17.50;99.90;;;;;;5031535;28;20103;-79
2021/08/29 11:27:44;;;;;;;26.60;11.60;;;17.60;99.90;;;;;;5016531;28;20383;-80
2021/08/29 11:30:16;;;;;;;18.67;10.73;;;17.80;99.90;;;;;;5031282;28;20025;-80
2021/08/29 11:33:06;;;;;;;16.13;9.80;;;17.80;99.90;;;;;;5030426;28;20504;-80
2021/08/29 11:35:33;;;;;;;16.80;10.45;;;17.80;99.90;;;;;;5031507;28;20033;-80
2021/08/29 11:38:21;;;;;;;16.02;9.45;;;18.00;99.90;;;;;;5031635;28;20021;-80
2021/08/29 11:40:55;;;;;;;14.68;9.68;;;18.20;99.90;;;;;;5024502;28;20052;-80
2021/08/29 11:43:28;;;;;;;17.20;9.05;;;18.40;99.90;;;;;;5031614;28;20033;-79
2021/08/29 11:46:09;;;;;;;17.65;8.52;;;18.50;99.90;;;;;;5031446;28;20063;-83
2021/08/29 11:48:36;;;;;;;13.10;8.45;;;18.60;99.90;;;;;;5031353;28;20040;-84
2021/08/29 11:51:04;;;;;;;18.27;9.10;;;18.60;99.90;;;;;;5031093;28;20025;-83
2021/08/29 11:53:42;;;;;;;22.55;9.40;;;18.50;99.90;;;;;;5031361;28;20049;-82
2021/08/29 11:56:08;;;;;;;13.05;8.43;;;18.30;99.90;;;;;;5030296;28;20025;-82
2021/08/29 11:58:34;;;;;;;12.15;8.85;;;18.20;99.90;;;;;;5031375;28;20026;-82
2021/08/29 12:01:05;;;;;;;15.73;8.32;;;18.10;99.90;;;;;;5031065;28;20059;-83
2021/08/29 12:03:32;;;;;;;14.38;10.02;;;18.10;99.90;;;;;;5031355;28;20022;-83
2021/08/29 12:06:00;;;;;;;17.45;8.85;;;18.10;99.90;;;;;;5029981;28;20558;-83
2021/08/29 12:08:35;;;;;;;16.98;9.52;;;18.10;99.90;;;;;;5031330;28;20075;-83
2021/08/29 12:11:01;;;;;;;20.13;10.30;;;18.20;99.90;;;;;;5030994;28;20026;-83
2021/08/29 12:13:30;;;;;;;14.65;10.18;;;18.00;99.90;;;;;;5031338;28;20024;-81
2021/08/29 12:16:01;;;;;;;20.90;10.50;;;18.00;99.90;;;;;;5031129;28;20104;-82
2021/08/29 12:18:29;;;;;;;15.63;10.00;;;18.10;99.90;;;;;;5031254;28;20026;-83
2021/08/29 12:20:56;;;;;;;19.05;9.93;;;18.20;99.90;;;;;;5029668;28;20033;-82
2021/08/29 12:23:25;;;;;;;16.23;9.88;;;18.20;99.90;;;;;;5031190;28;20040;-80
2021/08/29 12:25:58;;;;;;;19.13;10.80;;;18.20;99.90;;;;;;5034455;28;20389;-82
2021/08/29 12:28:24;;;;;;;18.50;9.80;;;18.20;99.90;;;;;;5031374;28;20096;-81
2021/08/29 12:30:55;;;;;;;16.65;10.18;;;18.30;99.90;;;;;;5028116;28;20029;-82
2021/08/29 12:33:22;;;;;;;17.10;11.27;;;18.00;99.90;;;;;;5029352;28;20025;-81
2021/08/29 12:35:48;;;;;;;16.75;10.68;;;18.10;99.90;;;;;;5029069;28;20035;-80
2021/08/29 12:38:19;;;;;;;20.30;10.93;;;18.00;99.90;;;;;;5030549;28;20444;-81